createdAt,value
2018-10-07T00:00:27.783Z,22.67
2018-10-07T00:01:05.649Z,21.73
2018-10-07T00:01:44.405Z,24.43
2018-10-07T00:02:22.506Z,25.63
2018-10-07T00:03:00.375Z,24.87
2018-10-07T00:03:38.410Z,23.87
2018-10-07T00:04:17.300Z,20.70
2018-10-07T00:04:56.380Z,26.33
2018-10-07T00:05:36.717Z,36.93
2018-10-07T00:06:14.592Z,29.33
2018-10-07T00:06:52.729Z,31.20
2018-10-07T00:07:33.356Z,25.73
2018-10-07T00:08:12.251Z,21.37
2018-10-07T00:08:50.133Z,23.93
2018-10-07T00:09:28.119Z,19.07
2018-10-07T00:10:06.093Z,27.77
2018-10-07T00:10:43.994Z,25.03
2018-10-07T00:11:22.160Z,24.70
2018-10-07T00:12:00.210Z,25.10
2018-10-07T00:12:38.190Z,26.03
2018-10-07T00:13:16.289Z,27.03
2018-10-07T00:13:54.297Z,26.43
2018-10-07T00:14:32.110Z,28.50
2018-10-07T00:15:10.241Z,22.37
2018-10-07T00:15:48.110Z,31.93
2018-10-07T00:16:26.091Z,25.63
2018-10-07T00:17:03.921Z,25.90
2018-10-07T00:17:41.796Z,27.90
2018-10-07T00:18:19.680Z,26.90
2018-10-07T00:18:58.394Z,33.50
2018-10-07T00:19:36.251Z,24.67
2018-10-07T00:20:15.200Z,32.73
2018-10-07T00:20:53.395Z,27.07
2018-10-07T00:21:32.136Z,24.00
2018-10-07T00:22:10.245Z,25.67
2018-10-07T00:22:48.423Z,29.23
2018-10-07T00:23:27.886Z,26.33
2018-10-07T00:24:06.096Z,29.20
2018-10-07T00:24:43.929Z,22.93
2018-10-07T00:25:22.031Z,24.13
2018-10-07T00:26:01.024Z,26.20
2018-10-07T00:26:40.182Z,24.50
2018-10-07T00:27:18.827Z,27.23
2018-10-07T00:27:57.833Z,26.20
2018-10-07T00:28:35.793Z,31.07
2018-10-07T00:29:13.984Z,24.30
2018-10-07T00:29:51.933Z,27.20
2018-10-07T00:30:29.867Z,20.97
2018-10-07T00:31:07.849Z,25.30
2018-10-07T00:31:49.890Z,27.73
2018-10-07T00:32:27.711Z,23.07
2018-10-07T00:33:06.199Z,31.33
2018-10-07T00:33:44.256Z,28.13
2018-10-07T00:34:22.280Z,25.73
2018-10-07T00:35:00.164Z,24.30
2018-10-07T00:35:38.167Z,26.40
2018-10-07T00:36:16.261Z,28.57
2018-10-07T00:36:54.154Z,22.50
2018-10-07T00:37:33.272Z,25.90
2018-10-07T00:38:11.409Z,21.30
2018-10-07T00:38:49.432Z,24.03
2018-10-07T00:39:27.301Z,35.13
2018-10-07T00:40:05.122Z,27.33
2018-10-07T00:40:43.468Z,24.80
2018-10-07T00:41:23.664Z,24.93
2018-10-07T00:42:03.864Z,29.07
2018-10-07T00:42:41.695Z,23.20
2018-10-07T00:43:19.657Z,24.90
2018-10-07T00:43:57.488Z,25.33
2018-10-07T00:44:35.450Z,31.73
2018-10-07T00:45:13.257Z,29.30
2018-10-07T00:45:51.217Z,22.30
2018-10-07T00:46:29.149Z,21.63
2018-10-07T00:47:07.034Z,24.27
2018-10-07T00:47:45.924Z,19.33
2018-10-07T00:48:23.809Z,23.87
2018-10-07T00:49:01.698Z,20.07
2018-10-07T00:49:40.519Z,22.03
2018-10-07T00:50:18.375Z,22.03
2018-10-07T00:50:56.395Z,19.27
2018-10-07T00:51:34.212Z,18.33
2018-10-07T00:52:12.282Z,19.20
2018-10-07T00:52:50.185Z,18.23
2018-10-07T00:53:28.054Z,19.03
2018-10-07T00:54:06.426Z,17.40
2018-10-07T00:54:44.427Z,22.23
2018-10-07T00:55:23.365Z,19.90
2018-10-07T00:56:03.689Z,18.20
2018-10-07T00:56:42.896Z,18.57
2018-10-07T00:57:20.855Z,29.20
2018-10-07T00:57:58.698Z,19.50
2018-10-07T00:58:36.606Z,18.90
2018-10-07T00:59:14.421Z,17.93
2018-10-07T00:59:52.417Z,21.13
2018-10-07T01:00:30.358Z,17.23
2018-10-07T01:01:08.121Z,20.03
2018-10-07T01:01:45.941Z,17.13
2018-10-07T01:02:24.800Z,20.27
2018-10-07T01:03:02.856Z,22.83
2018-10-07T01:03:40.697Z,23.37
2018-10-07T01:04:18.608Z,17.03
2018-10-07T01:04:56.392Z,20.67
2018-10-07T01:05:34.249Z,20.20
2018-10-07T01:06:12.110Z,15.67
2018-10-07T01:06:50.170Z,19.60
2018-10-07T01:07:29.053Z,22.20
2018-10-07T01:08:06.933Z,18.83
2018-10-07T01:08:44.768Z,15.93
2018-10-07T01:09:23.260Z,16.03
2018-10-07T01:10:03.431Z,15.60
2018-10-07T01:10:43.925Z,15.33
2018-10-07T01:11:24.152Z,16.03
2018-10-07T01:12:02.994Z,15.40
2018-10-07T01:12:41.684Z,20.63
2018-10-07T01:13:21.274Z,15.80
2018-10-07T01:13:59.208Z,17.70
2018-10-07T01:14:37.141Z,16.40
2018-10-07T01:15:15.498Z,19.37
2018-10-07T01:15:53.552Z,18.90
2018-10-07T01:16:31.458Z,17.47
2018-10-07T01:17:10.118Z,17.40
2018-10-07T01:17:47.983Z,20.10
2018-10-07T01:18:25.897Z,16.47
2018-10-07T01:19:03.763Z,18.40
2018-10-07T01:19:41.837Z,15.70
2018-10-07T01:20:19.954Z,18.00
2018-10-07T01:20:57.923Z,14.80
2018-10-07T01:21:35.800Z,18.60
2018-10-07T01:22:13.788Z,16.60
2018-10-07T01:22:51.677Z,16.30
2018-10-07T01:23:29.596Z,15.37
2018-10-07T01:24:08.396Z,17.60
2018-10-07T01:24:46.329Z,15.37
2018-10-07T01:25:24.363Z,17.63
2018-10-07T01:26:03.156Z,15.23
2018-10-07T01:26:41.020Z,15.67
2018-10-07T01:27:19.800Z,34.80
2018-10-07T01:27:57.848Z,16.47
2018-10-07T01:28:35.741Z,14.33
2018-10-07T01:29:13.722Z,20.70
2018-10-07T01:29:51.627Z,13.93
2018-10-07T01:30:30.611Z,17.03
2018-10-07T01:31:08.655Z,15.70
2018-10-07T01:31:46.505Z,12.47
2018-10-07T01:32:24.393Z,12.80
2018-10-07T01:33:02.284Z,14.07
2018-10-07T01:33:40.497Z,15.80
2018-10-07T01:34:18.468Z,12.63
2018-10-07T01:34:56.437Z,14.40
2018-10-07T01:35:34.509Z,13.37
2018-10-07T01:36:13.264Z,14.53
2018-10-07T01:36:51.122Z,17.03
2018-10-07T01:37:29.150Z,15.70
2018-10-07T01:38:06.993Z,13.07
2018-10-07T01:38:45.026Z,15.00
2018-10-07T01:39:22.913Z,13.80
2018-10-07T01:40:01.201Z,12.77
2018-10-07T01:40:39.099Z,12.80
2018-10-07T01:41:17.092Z,14.40
2018-10-07T01:41:55.229Z,13.77
2018-10-07T01:42:33.393Z,15.33
2018-10-07T01:43:11.375Z,21.90
2018-10-07T01:43:49.577Z,17.87
2018-10-07T01:44:27.910Z,22.63
2018-10-07T01:45:05.897Z,25.27
2018-10-07T01:45:43.761Z,18.10
2018-10-07T01:46:22.580Z,18.10
2018-10-07T01:47:00.406Z,24.63
2018-10-07T01:47:38.301Z,18.97
2018-10-07T01:48:16.718Z,20.92
2018-10-07T01:48:54.876Z,18.10
2018-10-07T01:49:32.846Z,14.53
2018-10-07T01:50:11.081Z,15.90
2018-10-07T01:50:49.075Z,14.63
2018-10-07T01:51:28.045Z,15.40
2018-10-07T01:52:05.891Z,15.30
2018-10-07T01:52:43.692Z,19.77
2018-10-07T01:53:21.508Z,18.83
2018-10-07T01:54:00.191Z,19.33
2018-10-07T01:54:38.102Z,17.33
2018-10-07T01:55:16.055Z,16.60
2018-10-07T01:55:53.977Z,16.67
2018-10-07T01:56:31.941Z,16.80
2018-10-07T01:57:09.836Z,19.83
2018-10-07T01:57:47.827Z,18.97
2018-10-07T01:58:25.812Z,17.03
2018-10-07T01:59:03.700Z,19.23
2018-10-07T01:59:41.522Z,21.83
2018-10-07T02:00:19.378Z,18.87
2018-10-07T02:00:57.248Z,20.97
2018-10-07T02:01:35.048Z,19.50
2018-10-07T02:02:14.862Z,19.90
2018-10-07T02:03:06.551Z,20.53
2018-10-07T02:03:44.378Z,19.90
2018-10-07T02:04:22.177Z,23.80
2018-10-07T02:05:00.217Z,18.80
2018-10-07T02:05:39.489Z,23.80
2018-10-07T02:06:17.792Z,18.47
2018-10-07T02:06:56.419Z,14.63
2018-10-07T02:07:34.308Z,15.73
2018-10-07T02:08:12.233Z,14.07
2018-10-07T02:08:50.960Z,13.80
2018-10-07T02:09:28.876Z,13.20
2018-10-07T02:10:06.757Z,13.97
2018-10-07T02:10:44.638Z,13.23
2018-10-07T02:11:22.562Z,20.10
2018-10-07T02:12:00.415Z,12.93
2018-10-07T02:12:38.281Z,12.30
2018-10-07T02:13:16.187Z,12.67
2018-10-07T02:13:54.211Z,11.83
2018-10-07T02:14:32.149Z,12.40
2018-10-07T02:15:10.086Z,14.13
2018-10-07T02:15:47.928Z,15.83
2018-10-07T02:16:26.216Z,14.20
2018-10-07T02:17:04.162Z,15.70
2018-10-07T02:17:41.994Z,12.80
2018-10-07T02:18:19.796Z,12.70
2018-10-07T02:18:57.736Z,11.80
2018-10-07T02:19:35.644Z,13.10
2018-10-07T02:20:13.561Z,11.00
2018-10-07T02:20:51.547Z,11.70
2018-10-07T02:21:29.400Z,13.97
2018-10-07T02:22:07.330Z,9.90
2018-10-07T02:22:45.214Z,11.40
2018-10-07T02:23:23.143Z,10.70
2018-10-07T02:24:01.036Z,13.27
2018-10-07T02:24:38.925Z,10.30
2018-10-07T02:25:16.766Z,11.57
2018-10-07T02:25:55.633Z,11.10
2018-10-07T02:26:33.516Z,11.70
2018-10-07T02:27:11.447Z,9.70
2018-10-07T02:27:49.388Z,10.20
2018-10-07T02:28:27.286Z,11.60
2018-10-07T02:29:05.489Z,10.30
2018-10-07T02:29:43.426Z,10.97
2018-10-07T02:30:21.436Z,10.93
2018-10-07T02:30:59.474Z,11.90
2018-10-07T02:31:37.496Z,12.87
2018-10-07T02:32:15.371Z,11.70
2018-10-07T02:32:53.272Z,11.57
2018-10-07T02:33:31.178Z,11.43
2018-10-07T02:34:09.430Z,12.03
2018-10-07T02:34:47.215Z,14.27
2018-10-07T02:35:25.255Z,11.13
2018-10-07T02:36:03.205Z,10.60
2018-10-07T02:36:40.997Z,10.83
2018-10-07T02:37:18.825Z,10.00
2018-10-07T02:37:56.738Z,11.40
2018-10-07T02:38:34.800Z,11.60
2018-10-07T02:39:13.148Z,10.87
2018-10-07T02:39:51.140Z,10.27
2018-10-07T02:40:28.965Z,10.53
2018-10-07T02:41:07.022Z,10.03
2018-10-07T02:41:44.960Z,9.10
2018-10-07T02:42:22.986Z,10.43
2018-10-07T02:43:00.863Z,10.33
2018-10-07T02:43:38.878Z,10.90
2018-10-07T02:44:20.910Z,9.75
2018-10-07T02:44:58.892Z,9.53
2018-10-07T02:45:36.866Z,9.70
2018-10-07T02:46:15.029Z,11.30
2018-10-07T02:46:52.937Z,9.93
2018-10-07T02:47:31.085Z,9.30
2018-10-07T02:48:09.027Z,10.20
2018-10-07T02:48:46.904Z,12.70
2018-10-07T02:49:24.745Z,9.27
2018-10-07T02:50:02.685Z,9.73
2018-10-07T02:50:42.410Z,8.07
2018-10-07T02:51:20.499Z,8.93
2018-10-07T03:03:27.895Z,11.67
2018-10-07T03:04:06.711Z,9.60
2018-10-07T03:04:44.755Z,10.80
2018-10-07T03:05:22.712Z,9.70
2018-10-07T03:06:04.398Z,8.90
2018-10-07T03:06:42.462Z,10.13
2018-10-07T03:07:21.793Z,9.50
2018-10-07T03:08:01.152Z,9.00
2018-10-07T03:08:38.986Z,9.10
2018-10-07T03:09:16.882Z,9.43
2018-10-07T03:09:54.919Z,9.30
2018-10-07T03:10:32.878Z,9.30
2018-10-07T03:11:10.915Z,9.10
2018-10-07T03:11:48.945Z,8.73
2018-10-07T03:12:26.862Z,9.50
2018-10-07T03:13:04.999Z,9.27
2018-10-07T03:13:42.854Z,10.17
2018-10-07T03:14:20.707Z,9.73
2018-10-07T03:14:58.525Z,9.37
2018-10-07T03:15:36.483Z,9.83
2018-10-07T03:16:14.391Z,9.53
2018-10-07T03:16:53.385Z,14.83
2018-10-07T03:17:31.392Z,9.30
2018-10-07T03:18:09.703Z,10.53
2018-10-07T03:18:47.500Z,9.70
2018-10-07T03:19:25.312Z,9.40
2018-10-07T03:20:03.337Z,8.53
2018-10-07T03:20:41.262Z,9.80
2018-10-07T03:21:19.135Z,10.63
2018-10-07T03:21:58.046Z,9.63
2018-10-07T03:22:36.038Z,10.20
2018-10-07T03:23:13.976Z,10.27
2018-10-07T03:23:52.054Z,10.43
2018-10-07T03:24:29.939Z,10.00
2018-10-07T03:25:08.119Z,10.00
2018-10-07T03:25:45.983Z,11.67
2018-10-07T03:26:23.969Z,10.77
2018-10-07T03:27:01.883Z,11.20
2018-10-07T03:27:39.841Z,11.03
2018-10-07T03:28:17.951Z,13.50
2018-10-07T03:28:55.951Z,11.23
2018-10-07T03:29:33.949Z,10.13
2018-10-07T03:30:12.245Z,10.27
2018-10-07T03:30:53.527Z,10.83
2018-10-07T03:31:31.416Z,11.53
2018-10-07T03:32:09.763Z,11.37
2018-10-07T03:32:47.949Z,12.87
2018-10-07T03:33:26.006Z,10.67
2018-10-07T03:34:04.065Z,11.43
2018-10-07T03:34:41.933Z,11.23
2018-10-07T03:35:19.788Z,12.07
2018-10-07T03:35:57.720Z,11.30
2018-10-07T03:36:35.720Z,11.43
2018-10-07T03:37:13.655Z,10.50
2018-10-07T03:37:51.605Z,10.53
2018-10-07T03:38:29.871Z,11.10
2018-10-07T03:39:09.908Z,11.73
2018-10-07T03:39:47.899Z,10.77
2018-10-07T03:40:25.897Z,11.30
2018-10-07T03:41:03.860Z,12.00
2018-10-07T03:41:42.161Z,10.93
2018-10-07T03:42:20.057Z,12.20
2018-10-07T03:42:57.858Z,12.07
2018-10-07T03:43:40.682Z,12.70
2018-10-07T03:44:19.841Z,12.80
2018-10-07T03:44:57.738Z,12.50
2018-10-07T03:45:35.845Z,11.80
2018-10-07T03:46:13.777Z,12.53
2018-10-07T03:46:53.879Z,10.53
2018-10-07T03:47:32.870Z,15.30
2018-10-07T03:48:10.728Z,11.63
2018-10-07T03:48:50.292Z,11.10
2018-10-07T03:49:28.215Z,10.43
2018-10-07T03:50:06.020Z,10.60
2018-10-07T03:50:43.795Z,11.53
2018-10-07T03:51:21.664Z,11.40
2018-10-07T03:52:01.078Z,11.33
2018-10-07T03:52:38.911Z,10.97
2018-10-07T03:53:16.809Z,11.80
2018-10-07T03:53:54.772Z,12.40
2018-10-07T03:54:33.270Z,12.23
2018-10-07T03:55:11.185Z,12.20
2018-10-07T03:55:49.126Z,16.40
2018-10-07T03:56:27.016Z,13.47
2018-10-07T03:57:04.900Z,15.03
2018-10-07T03:57:42.793Z,13.17
2018-10-07T03:58:20.839Z,12.93
2018-10-07T03:58:58.732Z,12.77
2018-10-07T03:59:36.677Z,14.27
2018-10-07T04:00:14.653Z,15.57
2018-10-07T04:00:52.674Z,13.23
2018-10-07T04:01:30.637Z,13.40
2018-10-07T04:02:08.606Z,12.23
2018-10-07T04:02:46.423Z,13.33
2018-10-07T04:03:24.529Z,13.67
2018-10-07T04:04:02.613Z,15.40
2018-10-07T04:04:40.519Z,16.17
2018-10-07T04:05:18.639Z,15.30
2018-10-07T04:05:57.473Z,17.43
2018-10-07T04:06:35.427Z,15.00
2018-10-07T04:07:13.394Z,15.20
2018-10-07T04:07:51.261Z,14.80
2018-10-07T04:08:29.177Z,14.07
2018-10-07T04:09:07.517Z,17.93
2018-10-07T04:09:45.420Z,13.67
2018-10-07T04:10:23.233Z,13.70
2018-10-07T04:11:01.047Z,12.60
2018-10-07T04:11:38.888Z,13.60
2018-10-07T04:12:16.917Z,12.27
2018-10-07T04:12:54.712Z,13.03
2018-10-07T04:13:32.606Z,14.70
2018-10-07T04:14:10.638Z,13.93
2018-10-07T04:14:48.646Z,12.23
2018-10-07T04:15:26.815Z,13.77
2018-10-07T04:16:05.208Z,14.33
2018-10-07T04:16:43.049Z,13.43
2018-10-07T04:17:21.028Z,15.00
2018-10-07T04:17:58.921Z,11.80
2018-10-07T04:18:36.953Z,14.00
2018-10-07T04:19:15.193Z,12.70
2018-10-07T04:19:53.045Z,12.73
2018-10-07T04:20:31.905Z,12.53
2018-10-07T04:21:10.724Z,12.40
2018-10-07T04:21:54.736Z,11.83
2018-10-07T04:22:32.881Z,16.53
2018-10-07T04:23:10.935Z,12.00
2018-10-07T04:23:48.840Z,12.53
2018-10-07T04:24:28.092Z,12.27
2018-10-07T04:25:06.063Z,12.47
2018-10-07T04:25:43.920Z,12.30
2018-10-07T04:26:21.783Z,13.00
2018-10-07T04:26:59.812Z,12.30
2018-10-07T04:27:37.665Z,14.10
2018-10-07T04:28:15.505Z,12.67
2018-10-07T04:28:53.597Z,14.80
2018-10-07T04:29:31.460Z,15.00
2018-10-07T04:30:10.723Z,17.80
2018-10-07T04:30:48.631Z,15.27
2018-10-07T04:31:26.598Z,13.93
2018-10-07T04:32:04.497Z,14.57
2018-10-07T04:32:42.447Z,14.77
2018-10-07T04:33:20.276Z,15.70
2018-10-07T04:33:58.213Z,14.80
2018-10-07T04:34:36.063Z,14.83
2018-10-07T04:35:13.901Z,14.87
2018-10-07T04:35:51.741Z,14.30
2018-10-07T04:36:29.625Z,20.43
2018-10-07T04:37:07.564Z,14.20
2018-10-07T04:37:45.337Z,14.17
2018-10-07T04:38:23.332Z,16.40
2018-10-07T04:39:01.263Z,14.70
2018-10-07T04:39:39.304Z,14.03
2018-10-07T04:40:17.281Z,14.63
2018-10-07T04:40:55.773Z,14.30
2018-10-07T04:41:33.570Z,13.17
2018-10-07T04:42:11.496Z,15.17
2018-10-07T04:42:49.412Z,13.20
2018-10-07T04:43:27.554Z,13.70
2018-10-07T04:44:05.502Z,11.90
2018-10-07T04:44:43.443Z,11.57
2018-10-07T04:45:22.370Z,11.07
2018-10-07T04:46:00.292Z,12.77
2018-10-07T04:46:38.216Z,11.10
2018-10-07T04:47:16.120Z,13.67
2018-10-07T04:47:54.049Z,13.43
2018-10-07T04:48:34.570Z,13.07
2018-10-07T04:49:12.405Z,11.50
2018-10-07T04:49:50.432Z,12.10
2018-10-07T04:50:28.479Z,12.67
2018-10-07T04:51:06.516Z,13.20
2018-10-07T04:51:44.313Z,13.13
2018-10-07T04:52:22.200Z,12.80
2018-10-07T04:53:00.094Z,14.17
2018-10-07T04:53:38.024Z,16.43
2018-10-07T04:54:16.413Z,16.67
2018-10-07T04:54:54.286Z,14.43
2018-10-07T04:55:33.102Z,12.30
2018-10-07T04:56:10.979Z,12.80
2018-10-07T04:56:48.891Z,15.40
2018-10-07T04:57:26.799Z,13.90
2018-10-07T04:58:04.659Z,12.73
2018-10-07T04:58:42.592Z,16.23
2018-10-07T04:59:20.524Z,14.73
2018-10-07T04:59:59.197Z,15.13
2018-10-07T05:00:37.341Z,18.80
2018-10-07T05:01:15.313Z,14.03
2018-10-07T05:01:53.273Z,14.63
2018-10-07T05:02:31.185Z,15.93
2018-10-07T05:03:09.009Z,15.00
2018-10-07T05:03:46.915Z,13.40
2018-10-07T05:04:24.784Z,13.77
2018-10-07T05:05:02.706Z,13.73
2018-10-07T05:05:41.796Z,14.43
2018-10-07T05:06:20.116Z,13.97
2018-10-07T05:07:00.736Z,14.10
2018-10-07T05:07:38.607Z,14.83
2018-10-07T05:08:17.127Z,13.68
2018-10-07T05:08:56.721Z,13.83
2018-10-07T05:09:35.044Z,13.50
2018-10-07T05:10:25.485Z,13.07
2018-10-07T05:11:05.218Z,13.00
2018-10-07T05:11:44.398Z,13.43
2018-10-07T05:12:23.019Z,12.30
2018-10-07T05:13:01.519Z,13.00
2018-10-07T05:13:55.643Z,13.90
2018-10-07T05:14:33.781Z,13.40
2018-10-07T05:15:11.922Z,13.03
2018-10-07T05:15:51.896Z,13.53
2018-10-07T05:16:40.644Z,11.67
2018-10-07T05:17:19.922Z,14.13
2018-10-07T05:17:58.331Z,13.17
2018-10-07T05:18:37.426Z,13.43
2018-10-07T05:19:15.647Z,13.10
2018-10-07T05:19:53.543Z,15.37
2018-10-07T05:20:31.410Z,12.83
2018-10-07T05:21:09.620Z,13.97
2018-10-07T05:21:47.587Z,12.77
2018-10-07T05:22:25.446Z,13.90
2018-10-07T05:23:03.477Z,13.03
2018-10-07T05:23:41.396Z,11.87
2018-10-07T05:24:19.197Z,12.13
2018-10-07T05:24:57.531Z,14.33
2018-10-07T05:25:35.428Z,12.00
2018-10-07T05:26:13.380Z,13.40
2018-10-07T05:26:51.414Z,12.63
2018-10-07T05:27:29.468Z,12.23
2018-10-07T05:28:07.374Z,12.10
2018-10-07T05:28:45.254Z,12.83
2018-10-07T05:29:23.151Z,13.37
2018-10-07T05:30:00.909Z,22.80
2018-10-07T05:30:38.754Z,13.20
2018-10-07T05:31:16.601Z,12.43
2018-10-07T05:31:54.581Z,13.43
2018-10-07T05:32:32.519Z,13.73
2018-10-07T05:33:10.415Z,13.97
2018-10-07T05:33:49.080Z,13.27
2018-10-07T05:34:27.524Z,12.67
2018-10-07T05:35:05.404Z,14.00
2018-10-07T05:35:43.336Z,14.20
2018-10-07T05:36:21.264Z,14.13
2018-10-07T05:36:59.078Z,14.20
2018-10-07T05:37:36.897Z,14.27
2018-10-07T05:38:14.900Z,13.80
2018-10-07T05:38:52.793Z,14.60
2018-10-07T05:39:30.693Z,14.47
2018-10-07T05:40:08.475Z,14.17
2018-10-07T05:40:46.468Z,13.40
2018-10-07T05:41:24.422Z,13.97
2018-10-07T05:42:02.230Z,15.60
2018-10-07T05:42:40.128Z,14.67
2018-10-07T05:43:18.009Z,14.60
2018-10-07T05:43:55.995Z,14.63
2018-10-07T05:44:33.871Z,15.57
2018-10-07T05:45:12.048Z,14.13
2018-10-07T05:45:50.054Z,15.63
2018-10-07T05:46:27.905Z,14.23
2018-10-07T05:47:06.637Z,15.03
2018-10-07T05:47:44.465Z,16.20
2018-10-07T05:48:23.345Z,15.37
2018-10-07T05:49:01.132Z,16.17
2018-10-07T05:49:39.135Z,15.70
2018-10-07T05:50:17.216Z,14.77
2018-10-07T05:50:56.142Z,17.90
2018-10-07T05:51:33.996Z,15.93
2018-10-07T05:52:11.855Z,16.57
2018-10-07T05:52:49.675Z,20.97
2018-10-07T05:53:27.599Z,16.93
2018-10-07T05:54:05.530Z,17.10
2018-10-07T05:54:43.733Z,15.13
2018-10-07T05:55:21.913Z,16.70
2018-10-07T05:56:00.783Z,16.73
2018-10-07T05:56:38.684Z,16.43
2018-10-07T05:57:16.676Z,16.70
2018-10-07T05:57:58.335Z,16.70
2018-10-07T05:58:37.385Z,16.73
2018-10-07T05:59:15.578Z,16.80
2018-10-07T05:59:53.751Z,16.73
2018-10-07T06:00:34.532Z,18.30
2018-10-07T06:01:17.249Z,16.20
2018-10-07T06:01:56.899Z,17.03
2018-10-07T06:02:35.270Z,17.57
2018-10-07T06:04:32.988Z,17.83
2018-10-07T06:05:10.892Z,17.20
2018-10-07T06:05:49.956Z,18.13
2018-10-07T06:06:27.875Z,17.73
2018-10-07T06:07:06.822Z,18.27
2018-10-07T06:07:45.213Z,16.37
2018-10-07T06:08:24.333Z,18.60
2018-10-07T06:09:02.276Z,16.03
2018-10-07T06:09:41.314Z,17.10
2018-10-07T06:10:19.215Z,21.77
2018-10-07T06:10:56.974Z,17.07
2018-10-07T06:11:34.956Z,18.17
2018-10-07T06:12:12.927Z,17.97
2018-10-07T06:12:51.547Z,18.03
2018-10-07T06:13:29.429Z,18.33
2018-10-07T06:14:07.463Z,19.43
2018-10-07T06:14:54.352Z,17.43
2018-10-07T06:15:36.785Z,18.23
2018-10-07T06:16:14.566Z,16.60
2018-10-07T06:16:52.411Z,21.60
2018-10-07T06:17:33.145Z,17.17
2018-10-07T06:18:11.469Z,17.60
2018-10-07T06:18:49.284Z,18.27
2018-10-07T06:19:27.281Z,17.40
2018-10-07T06:20:05.188Z,18.50
2018-10-07T06:20:43.247Z,20.63
2018-10-07T06:21:21.160Z,20.23
2018-10-07T06:22:00.034Z,17.83
2018-10-07T06:23:41.408Z,19.23
2018-10-07T06:24:19.298Z,18.67
2018-10-07T06:24:57.231Z,17.53
2018-10-07T06:25:35.180Z,16.23
2018-10-07T06:26:13.097Z,21.93
2018-10-07T06:26:52.051Z,19.33
2018-10-07T06:27:29.951Z,16.33
2018-10-07T06:28:07.750Z,17.90
2018-10-07T06:28:45.963Z,18.33
2018-10-07T06:29:23.988Z,17.53
2018-10-07T06:30:01.976Z,17.43
2018-10-07T06:30:39.987Z,16.07
2018-10-07T06:31:17.944Z,14.53
2018-10-07T06:31:56.905Z,16.37
2018-10-07T06:32:34.771Z,15.47
2018-10-07T06:33:12.605Z,16.23
2018-10-07T06:33:50.453Z,16.60
2018-10-07T06:34:28.351Z,16.70
2018-10-07T06:35:06.190Z,16.67
2018-10-07T06:35:44.026Z,15.60
2018-10-07T06:36:21.942Z,16.67
2018-10-07T06:37:01.149Z,15.23
2018-10-07T06:37:39.037Z,16.43
2018-10-07T06:38:17.866Z,16.90
2018-10-07T06:38:55.724Z,16.40
2018-10-07T06:39:33.566Z,19.20
2018-10-07T06:40:11.905Z,16.00
2018-10-07T06:40:49.753Z,18.23
2018-10-07T06:41:30.321Z,18.43
2018-10-07T06:42:08.175Z,16.70
2018-10-07T06:42:46.064Z,14.43
2018-10-07T06:43:23.995Z,14.93
2018-10-07T06:44:01.842Z,15.33
2018-10-07T06:44:39.876Z,15.20
2018-10-07T06:45:17.731Z,14.30
2018-10-07T06:45:56.470Z,15.33
2018-10-07T06:46:34.336Z,14.60
2018-10-07T06:47:12.248Z,15.37
2018-10-07T06:47:50.144Z,14.47
2018-10-07T06:48:27.933Z,13.97
2018-10-07T06:49:05.849Z,15.40
2018-10-07T06:49:43.681Z,14.67
2018-10-07T06:50:21.588Z,14.97
2018-10-07T06:50:59.459Z,15.80
2018-10-07T06:51:37.741Z,13.80
2018-10-07T06:52:15.529Z,13.23
2018-10-07T06:52:54.190Z,18.30
2018-10-07T06:53:32.081Z,16.77
2018-10-07T06:54:09.940Z,14.23
2018-10-07T06:54:47.961Z,15.67
2018-10-07T06:55:25.920Z,15.13
2018-10-07T06:56:03.758Z,15.30
2018-10-07T06:56:41.835Z,14.90
2018-10-07T06:57:19.818Z,14.37
2018-10-07T06:57:57.688Z,15.43
2018-10-07T06:58:35.520Z,15.63
2018-10-07T06:59:13.336Z,16.70
2018-10-07T06:59:51.380Z,15.00
2018-10-07T07:00:29.384Z,15.83
2018-10-07T07:01:07.417Z,13.80
2018-10-07T07:01:45.450Z,15.17
2018-10-07T07:02:23.546Z,14.77
2018-10-07T07:03:01.511Z,18.23
2018-10-07T07:03:39.417Z,16.70
2018-10-07T07:04:17.316Z,15.60
2018-10-07T07:04:55.497Z,15.40
2018-10-07T07:05:33.420Z,15.67
2018-10-07T07:06:11.369Z,15.70
2018-10-07T07:06:50.197Z,14.80
2018-10-07T07:07:28.510Z,16.97
2018-10-07T07:08:06.359Z,17.03
2018-10-07T07:08:44.408Z,15.33
2018-10-07T07:09:22.267Z,16.20
2018-10-07T07:10:00.152Z,15.87
2018-10-07T07:10:38.032Z,15.13
2018-10-07T07:11:15.940Z,17.70
2018-10-07T07:11:54.904Z,15.93
2018-10-07T07:12:32.998Z,15.50
2018-10-07T07:13:12.079Z,14.63
2018-10-07T07:13:50.773Z,14.97
2018-10-07T07:14:28.608Z,14.53
2018-10-07T07:15:06.647Z,16.07
2018-10-07T07:15:45.494Z,15.60
2018-10-07T07:16:23.412Z,15.47
2018-10-07T07:17:01.336Z,18.37
2018-10-07T07:17:39.428Z,15.10
2018-10-07T07:18:17.311Z,14.23
2018-10-07T07:18:55.340Z,15.07
2018-10-07T07:19:33.292Z,15.33
2018-10-07T07:20:11.234Z,14.93
2018-10-07T07:20:49.223Z,15.03
2018-10-07T07:21:27.157Z,15.90
2018-10-07T07:22:04.965Z,14.87
2018-10-07T07:22:42.832Z,16.77
2018-10-07T07:23:20.652Z,16.07
2018-10-07T07:23:59.391Z,15.33
2018-10-07T07:24:37.235Z,14.50
2018-10-07T07:25:15.067Z,15.10
2018-10-07T07:25:52.925Z,14.67
2018-10-07T07:26:30.703Z,15.67
2018-10-07T07:27:08.776Z,15.33
2018-10-07T07:27:46.601Z,22.03
2018-10-07T07:28:25.500Z,14.80
2018-10-07T07:29:03.329Z,15.77
2018-10-07T07:29:41.295Z,15.97
2018-10-07T07:30:19.074Z,14.53
2018-10-07T07:30:57.926Z,15.27
2018-10-07T07:31:35.850Z,15.43
2018-10-07T07:32:13.665Z,15.77
2018-10-07T07:32:51.538Z,16.83
2018-10-07T07:33:29.405Z,16.00
2018-10-07T07:34:07.373Z,14.63
2018-10-07T07:34:46.221Z,15.63
2018-10-07T07:35:24.841Z,20.37
2018-10-07T07:36:02.665Z,15.60
2018-10-07T07:36:40.491Z,17.10
2018-10-07T07:37:18.333Z,20.53
2018-10-07T07:37:56.257Z,15.67
2018-10-07T07:38:34.408Z,15.30
2018-10-07T07:39:12.359Z,15.10
2018-10-07T07:39:50.454Z,16.33
2018-10-07T07:40:28.281Z,15.20
2018-10-07T07:41:06.157Z,15.10
2018-10-07T07:41:43.996Z,15.27
2018-10-07T07:42:21.916Z,18.47
2018-10-07T07:42:59.869Z,20.47
2018-10-07T07:43:37.747Z,20.40
2018-10-07T07:47:16.617Z,14.70
2018-10-07T07:47:54.792Z,15.20
2018-10-07T07:48:32.568Z,15.30
2018-10-07T07:49:10.567Z,20.20
2018-10-07T07:49:48.626Z,14.63
2018-10-07T07:50:26.528Z,16.20
2018-10-07T07:51:05.247Z,15.60
2018-10-07T07:51:43.244Z,15.67
2018-10-07T07:52:21.183Z,14.63
2018-10-07T07:52:59.219Z,17.07
2018-10-07T07:53:37.401Z,18.40
2018-10-07T07:54:15.192Z,14.13
2018-10-07T07:54:54.286Z,14.60
2018-10-07T07:55:32.249Z,15.13
2018-10-07T07:56:10.291Z,16.53
2018-10-07T07:56:48.056Z,16.70
2018-10-07T07:57:25.935Z,18.03
2018-10-07T07:58:03.821Z,15.00
2018-10-07T07:58:41.709Z,15.97
2018-10-07T07:59:19.630Z,17.70
2018-10-07T07:59:57.569Z,14.97
2018-10-07T08:00:35.494Z,16.43
2018-10-07T08:01:13.592Z,15.70
2018-10-07T08:01:51.513Z,14.97
2018-10-07T08:02:29.544Z,16.83
2018-10-07T08:03:07.674Z,15.70
2018-10-07T08:03:45.708Z,15.67
2018-10-07T08:04:23.727Z,16.43
2018-10-07T08:05:01.948Z,15.73
2018-10-07T08:05:40.413Z,15.17
2018-10-07T08:06:18.516Z,14.43
2018-10-07T08:06:56.574Z,15.93
2018-10-07T08:07:34.740Z,19.00
2018-10-07T08:08:13.144Z,19.70
2018-10-07T08:08:51.430Z,15.87
2018-10-07T08:09:29.377Z,16.77
2018-10-07T08:10:08.113Z,16.60
2018-10-07T08:10:45.981Z,15.90
2018-10-07T08:11:23.837Z,22.40
2018-10-07T08:12:01.838Z,16.60
2018-10-07T08:12:41.058Z,16.27
2018-10-07T08:13:19.844Z,16.83
2018-10-07T08:13:57.750Z,18.60
2018-10-07T08:14:35.658Z,15.97
2018-10-07T08:15:13.539Z,17.10
2018-10-07T08:15:51.431Z,16.57
2018-10-07T08:16:29.242Z,15.60
2018-10-07T08:17:07.137Z,18.77
2018-10-07T08:17:45.037Z,16.57
2018-10-07T08:18:23.008Z,17.10
2018-10-07T08:19:00.889Z,17.67
2018-10-07T08:19:38.765Z,17.47
2018-10-07T08:20:16.907Z,16.07
2018-10-07T08:20:54.809Z,15.23
2018-10-07T08:21:32.737Z,15.77
2018-10-07T08:22:10.789Z,15.77
2018-10-07T08:22:48.721Z,26.03
2018-10-07T08:23:26.683Z,15.80
2018-10-07T08:24:04.607Z,20.00
2018-10-07T08:24:42.435Z,16.60
2018-10-07T08:25:20.948Z,17.37
2018-10-07T08:25:58.775Z,17.20
2018-10-07T08:26:36.649Z,18.60
2018-10-07T08:27:14.545Z,20.67
2018-10-07T08:27:53.192Z,18.10
2018-10-07T08:28:31.194Z,22.70
2018-10-07T08:29:09.141Z,17.20
2018-10-07T08:29:47.498Z,20.33
2018-10-07T08:30:25.496Z,18.20